Time;durP1;ratioP1;P1;durP2;ratioP2;P2;SDS_P1;SDS_P2;PMS_P1;PMS_P2;Temp;Humidity;BMP_temperature;BMP_pressure;BME280_temperature;BME280_humidity;BME280_pressure;Samples;Min_cycle;Max_cycle;Signal;HPM_P1;HPM_P2
2023/02/10 00:08:13;;;;;;;7.63;3.15;;;;;;;;;;21093587;28;20505;-71
2023/02/10 00:18:17;;;;;;;6.93;3.38;;;;;;;;;;21092180;28;20059;-71
2023/02/10 00:28:22;;;;;;;5.78;3.30;;;;;;;;;;21090062;28;20052;-71
2023/02/10 00:38:44;;;;;;;5.95;3.78;;;;;;;;;;21088602;28;20395;-72
2023/02/10 00:49:06;;;;;;;10.60;4.05;;;;;;;;;;21090234;28;20501;-71
2023/02/10 00:59:20;;;;;;;7.45;2.70;;;;;;;;;;21087307;28;20052;-72
2023/02/10 01:09:31;;;;;;;5.47;3.38;;;;;;;;;;21085788;28;20055;-71
2023/02/10 01:19:41;;;;;;;6.32;3.25;;;;;;;;;;21086635;28;20131;-71
2023/02/10 01:29:45;;;;;;;6.00;2.83;;;;;;;;;;21085912;28;20044;-72
2023/02/10 01:39:47;;;;;;;5.63;2.80;;;;;;;;;;21084180;28;20058;-71
2023/02/10 01:49:50;;;;;;;5.63;2.90;;;;;;;;;;21083349;28;20075;-71
2023/02/10 01:59:53;;;;;;;6.72;2.33;;;;;;;;;;21083293;28;20532;-71
2023/02/10 02:09:56;;;;;;;5.43;2.35;;;;;;;;;;21082872;28;20406;-71
2023/02/10 02:31:02;;;;;;;4.60;2.05;;;;;;;;;;21081072;28;20044;-71
2023/02/10 02:41:10;;;;;;;7.72;2.30;;;;;;;;;;21080651;28;20055;-71
2023/02/10 02:51:28;;;;;;;6.57;2.30;;;;;;;;;;21080578;28;20044;-71
2023/02/10 03:01:40;;;;;;;4.35;2.40;;;;;;;;;;21080154;28;20052;-71
2023/02/10 03:11:47;;;;;;;3.40;1.85;;;;;;;;;;21079842;28;20085;-71
2023/02/10 03:21:57;;;;;;;3.67;1.97;;;;;;;;;;21078258;28;20052;-71
2023/02/10 03:32:07;;;;;;;3.83;2.08;;;;;;;;;;21080003;28;20432;-71
2023/02/10 03:42:14;;;;;;;3.47;1.70;;;;;;;;;;21094065;28;20052;-73
2023/02/10 03:52:24;;;;;;;4.00;2.03;;;;;;;;;;21093188;28;20040;-73
2023/02/10 04:02:30;;;;;;;5.88;2.53;;;;;;;;;;21093604;28;20079;-71
2023/02/10 04:12:34;;;;;;;7.55;2.50;;;;;;;;;;21092252;28;20051;-72
2023/02/10 04:22:37;;;;;;;6.80;2.97;;;;;;;;;;21091455;28;20128;-71
2023/02/10 04:32:40;;;;;;;5.30;2.38;;;;;;;;;;21090183;28;20044;-70
2023/02/10 04:42:43;;;;;;;4.93;2.40;;;;;;;;;;21090909;28;20405;-72
2023/02/10 04:52:54;;;;;;;3.75;2.28;;;;;;;;;;21089377;28;20549;-73
2023/02/10 05:02:57;;;;;;;5.07;2.60;;;;;;;;;;21089040;28;20079;-71
2023/02/10 05:12:59;;;;;;;6.75;3.05;;;;;;;;;;21087120;28;20405;-69
2023/02/10 05:23:01;;;;;;;5.50;2.72;;;;;;;;;;21085505;28;20052;-71
2023/02/10 05:33:02;;;;;;;5.55;3.10;;;;;;;;;;21085250;28;20378;-70
2023/02/10 05:43:04;;;;;;;6.50;2.75;;;;;;;;;;21084949;28;20047;-71
2023/02/10 05:53:07;;;;;;;5.53;2.63;;;;;;;;;;21086585;28;20048;-71
2023/02/10 06:03:09;;;;;;;8.48;2.78;;;;;;;;;;21080875;28;20127;-70
2023/02/10 06:13:11;;;;;;;5.95;2.47;;;;;;;;;;21081283;28;20078;-70
2023/02/10 06:23:13;;;;;;;6.43;3.15;;;;;;;;;;21082063;28;20478;-71
2023/02/10 06:33:15;;;;;;;4.63;2.50;;;;;;;;;;21079117;28;20077;-74
2023/02/10 06:43:17;;;;;;;3.78;2.15;;;;;;;;;;21078947;28;20093;-71
2023/02/10 06:53:19;;;;;;;8.60;4.05;;;;;;;;;;21079301;28;20048;-70
2023/02/10 07:03:22;;;;;;;5.18;2.70;;;;;;;;;;21077685;28;20051;-69
2023/02/10 07:13:24;;;;;;;4.95;2.72;;;;;;;;;;21090216;28;20052;-72
2023/02/10 07:23:26;;;;;;;5.90;3.05;;;;;;;;;;21094639;28;20143;-72
2023/02/10 07:33:29;;;;;;;6.88;3.85;;;;;;;;;;21093241;28;20048;-72
2023/02/10 07:43:31;;;;;;;10.30;3.33;;;;;;;;;;21092902;28;20056;-69
2023/02/10 07:53:33;;;;;;;9.38;5.55;;;;;;;;;;21092903;28;20052;-71
2023/02/10 08:03:36;;;;;;;13.80;5.43;;;;;;;;;;21092645;28;20080;-71
2023/02/10 08:13:38;;;;;;;12.77;4.47;;;;;;;;;;21090670;28;20051;-71
2023/02/10 08:23:40;;;;;;;17.30;6.38;;;;;;;;;;21088789;28;20409;-71
2023/02/10 08:33:43;;;;;;;14.52;4.35;;;;;;;;;;21088104;28;20048;-70
2023/02/10 08:43:45;;;;;;;10.00;3.63;;;;;;;;;;21088208;28;20070;-72
2023/02/10 08:53:47;;;;;;;7.80;3.30;;;;;;;;;;21088432;28;20407;-72
2023/02/10 09:03:50;;;;;;;6.13;3.60;;;;;;;;;;21087573;28;20044;-71
2023/02/10 09:13:51;;;;;;;9.63;3.40;;;;;;;;;;21085846;28;20055;-71
2023/02/10 09:23:54;;;;;;;5.65;3.53;;;;;;;;;;21068629;28;20481;-72
2023/02/10 09:33:56;;;;;;;9.15;3.50;;;;;;;;;;21083507;28;20059;-73
2023/02/10 09:44:01;;;;;;;9.73;4.03;;;;;;;;;;21083517;28;20082;-72
2023/02/10 09:54:07;;;;;;;8.32;4.32;;;;;;;;;;21082207;28;20055;-72
2023/02/10 10:04:10;;;;;;;11.13;4.50;;;;;;;;;;21081901;28;20127;-71
2023/02/10 10:14:27;;;;;;;6.78;3.65;;;;;;;;;;21080457;28;20056;-71
2023/02/10 10:24:48;;;;;;;9.73;4.00;;;;;;;;;;21081650;28;20079;-63
2023/02/10 10:34:50;;;;;;;;;;;;;;;;;;21080415;28;20048;-61
2023/02/10 10:44:55;;;;;;;4.68;2.67;;;;;;;;;;21077465;28;19946;-61
2023/02/10 10:54:57;;;;;;;4.15;2.10;;;;;;;;;;21060963;28;20051;-60
2023/02/10 11:05:03;;;;;;;4.65;2.28;;;;;;;;;;21078993;28;20528;-66
2023/02/10 11:15:24;;;;;;;5.38;2.75;;;;;;;;;;21088141;28;20056;-66
2023/02/10 11:25:36;;;;;;;4.55;2.38;;;;;;;;;;21085459;28;20469;-66
2023/02/10 11:35:39;;;;;;;6.32;2.40;;;;;;;;;;21092962;28;20052;-65
2023/02/10 11:45:51;;;;;;;6.18;2.20;;;;;;;;;;20996784;28;20151;-63
2023/02/10 11:55:58;;;;;;;6.15;2.67;;;;;;;;;;21000452;28;20136;-62
2023/02/10 12:06:10;;;;;;;7.35;1.77;;;;;;;;;;21008436;28;20051;-60
2023/02/10 12:16:17;;;;;;;4.80;1.90;;;;;;;;;;21008004;28;20052;-70
2023/02/10 12:26:22;;;;;;;4.95;2.88;;;;;;;;;;21007231;28;20056;-64
2023/02/10 12:36:45;;;;;;;5.50;2.15;;;;;;;;;;21005947;28;20136;-65
2023/02/10 12:47:09;;;;;;;3.80;2.13;;;;;;;;;;21088013;28;20048;-65
2023/02/10 12:57:11;;;;;;;3.78;1.70;;;;;;;;;;21086834;28;20063;-74
2023/02/10 13:07:30;;;;;;;3.80;1.75;;;;;;;;;;21085961;28;20047;-72
2023/02/10 13:17:41;;;;;;;7.05;2.20;;;;;;;;;;21085092;28;20401;-74
2023/02/10 13:27:51;;;;;;;7.13;3.97;;;;;;;;;;21083969;28;20059;-70
2023/02/10 13:37:56;;;;;;;3.88;1.95;;;;;;;;;;21083061;28;20155;-73
2023/02/10 13:48:19;;;;;;;3.92;1.67;;;;;;;;;;21083198;28;20482;-75
2023/02/10 13:58:26;;;;;;;5.63;1.77;;;;;;;;;;21064097;28;20055;-72
2023/02/10 14:08:28;;;;;;;4.82;1.83;;;;;;;;;;21083811;28;20483;-71
2023/02/10 14:18:33;;;;;;;4.03;2.03;;;;;;;;;;21080047;28;20089;-74
2023/02/10 14:28:37;;;;;;;3.55;2.13;;;;;;;;;;21082013;28;20044;-72
2023/02/10 14:38:39;;;;;;;3.78;1.70;;;;;;;;;;21080090;28;20101;-73
2023/02/10 14:48:41;;;;;;;5.32;1.90;;;;;;;;;;21080317;28;20059;-73
2023/02/10 14:58:45;;;;;;;2.60;1.45;;;;;;;;;;21079963;28;20052;-75
2023/02/10 15:08:49;;;;;;;3.05;1.00;;;;;;;;;;21078361;28;20048;-65
2023/02/10 15:18:51;;;;;;;3.15;1.20;;;;;;;;;;21078783;28;20047;-70
2023/02/10 15:29:01;;;;;;;2.40;1.30;;;;;;;;;;21081624;28;20093;-73
2023/02/10 15:39:05;;;;;;;4.43;1.30;;;;;;;;;;21091900;28;20095;-68
2023/02/10 15:49:11;;;;;;;3.88;1.52;;;;;;;;;;21093686;28;20089;-74
2023/02/10 15:59:17;;;;;;;4.72;1.50;;;;;;;;;;21092926;28;20458;-69
2023/02/10 16:09:19;;;;;;;2.70;1.52;;;;;;;;;;21092358;28;20521;-71
2023/02/10 16:19:22;;;;;;;4.00;1.83;;;;;;;;;;21089812;28;20051;-74
2023/02/10 16:29:26;;;;;;;3.22;1.50;;;;;;;;;;21090715;28;20405;-71
2023/02/10 16:39:29;;;;;;;2.90;1.77;;;;;;;;;;21079858;28;20482;-71
2023/02/10 16:49:32;;;;;;;5.95;1.70;;;;;;;;;;21005893;28;20044;-74
2023/02/10 16:59:34;;;;;;;4.53;1.75;;;;;;;;;;21012570;28;20131;-68
2023/02/10 17:09:37;;;;;;;2.42;1.27;;;;;;;;;;21059750;28;20079;-65
2023/02/10 17:19:39;;;;;;;3.72;1.92;;;;;;;;;;21055562;28;20080;-66
2023/02/10 17:29:42;;;;;;;4.03;1.90;;;;;;;;;;21020109;28;20055;-66
2023/02/10 17:39:45;;;;;;;8.07;1.95;;;;;;;;;;21029324;28;20052;-65
2023/02/10 17:49:47;;;;;;;3.90;1.33;;;;;;;;;;21011414;28;20099;-64
2023/02/10 17:59:49;;;;;;;3.28;1.73;;;;;;;;;;21039092;28;20040;-68
2023/02/10 18:09:51;;;;;;;10.07;3.58;;;;;;;;;;21023320;28;20052;-62
2023/02/10 18:19:53;;;;;;;6.30;2.88;;;;;;;;;;20997555;28;20056;-70
2023/02/10 18:29:57;;;;;;;3.38;1.95;;;;;;;;;;21029886;28;20129;-66
2023/02/10 18:39:59;;;;;;;3.78;2.33;;;;;;;;;;21078796;28;20052;-65
2023/02/10 18:50:01;;;;;;;6.68;3.25;;;;;;;;;;21081851;28;20490;-70
2023/02/10 19:00:06;;;;;;;9.13;3.75;;;;;;;;;;21087818;28;20063;-65
2023/02/10 19:10:08;;;;;;;8.70;3.35;;;;;;;;;;21095269;28;20087;-68
2023/02/10 19:20:11;;;;;;;6.85;3.70;;;;;;;;;;21094681;28;20091;-66
2023/02/10 19:30:13;;;;;;;9.18;3.53;;;;;;;;;;21094366;28;20048;-64
2023/02/10 19:40:15;;;;;;;9.93;4.50;;;;;;;;;;21094237;28;20468;-66
2023/02/10 19:50:17;;;;;;;13.27;5.00;;;;;;;;;;21092649;28;20544;-70
2023/02/10 20:00:19;;;;;;;15.60;5.35;;;;;;;;;;21092554;28;20052;-70
2023/02/10 20:10:21;;;;;;;10.73;4.95;;;;;;;;;;21092385;28;20079;-66
2023/02/10 20:20:23;;;;;;;11.43;4.28;;;;;;;;;;21070130;28;20087;-64
2023/02/10 20:30:25;;;;;;;9.45;4.95;;;;;;;;;;21089662;28;20040;-70
2023/02/10 20:40:28;;;;;;;12.48;5.68;;;;;;;;;;21088354;28;20490;-72
2023/02/10 20:50:30;;;;;;;11.25;6.47;;;;;;;;;;21087494;28;20055;-70
2023/02/10 21:00:32;;;;;;;16.98;6.85;;;;;;;;;;21086188;28;20146;-71
2023/02/10 21:10:37;;;;;;;11.02;6.57;;;;;;;;;;21083622;28;20066;-66
2023/02/10 21:20:40;;;;;;;9.60;5.63;;;;;;;;;;21084281;28;20052;-69
2023/02/10 21:30:43;;;;;;;10.98;4.30;;;;;;;;;;21083311;28;20139;-68
2023/02/10 21:40:46;;;;;;;9.82;4.40;;;;;;;;;;21082627;28;20079;-67
2023/02/10 21:50:49;;;;;;;8.45;3.60;;;;;;;;;;21084001;28;20052;-70
2023/02/10 22:00:51;;;;;;;5.35;3.05;;;;;;;;;;21082510;28;20083;-68
2023/02/10 22:10:54;;;;;;;11.40;3.78;;;;;;;;;;21081453;28;20177;-69
2023/02/10 22:20:56;;;;;;;5.38;2.58;;;;;;;;;;21081794;28;20450;-66
2023/02/10 22:30:59;;;;;;;5.30;2.70;;;;;;;;;;21083063;28;20455;-69
2023/02/10 22:41:06;;;;;;;7.60;2.60;;;;;;;;;;21078550;28;20052;-67
2023/02/10 22:51:08;;;;;;;4.10;2.20;;;;;;;;;;21079467;28;20047;-66
2023/02/10 23:01:11;;;;;;;5.60;2.30;;;;;;;;;;21079843;28;20474;-64
2023/02/10 23:11:12;;;;;;;3.60;2.42;;;;;;;;;;21080352;28;20044;-70
2023/02/10 23:21:17;;;;;;;6.60;2.70;;;;;;;;;;21078959;28;20124;-72
2023/02/10 23:31:21;;;;;;;8.00;2.53;;;;;;;;;;21077494;28;20048;-72
2023/02/10 23:41:23;;;;;;;4.63;2.40;;;;;;;;;;21016352;28;20143;-68
2023/02/10 23:51:26;;;;;;;3.97;2.15;;;;;;;;;;20999504;28;20095;-72
